createdAt,value
2022-10-20T00:04:12.833Z,100774.34
2022-10-20T00:09:14.544Z,100769.00
2022-10-20T00:14:16.208Z,100766.00
2022-10-20T00:19:17.868Z,100761.03
2022-10-20T00:24:21.616Z,100756.41
2022-10-20T00:29:23.306Z,100748.88
2022-10-20T00:34:25.015Z,100747.72
2022-10-20T00:39:26.671Z,100741.00
2022-10-20T00:44:54.383Z,100737.72
2022-10-20T00:50:01.252Z,100733.88
2022-10-20T00:55:03.008Z,100739.28
2022-10-20T01:00:06.749Z,100739.63
2022-10-20T01:05:08.904Z,100725.88
2022-10-20T01:10:11.581Z,100711.38
2022-10-20T01:15:25.789Z,100708.50
2022-10-20T01:20:39.293Z,100698.66
2022-10-20T01:25:54.949Z,100692.34
2022-10-20T01:31:03.642Z,100686.41
2022-10-20T01:36:27.469Z,100670.56
2022-10-20T01:42:11.389Z,100665.75
2022-10-20T01:47:14.367Z,100662.44
2022-10-20T01:52:17.172Z,100656.44
2022-10-20T01:57:33.680Z,100637.88
2022-10-20T02:02:53.221Z,100629.75
2022-10-20T02:08:12.559Z,100604.22
2022-10-20T02:13:16.150Z,100607.38
2022-10-20T02:18:27.901Z,100587.50
2022-10-20T02:23:35.058Z,100584.22
2022-10-20T02:28:43.024Z,100578.09
2022-10-20T02:33:46.331Z,100562.75
2022-10-20T02:38:48.102Z,100556.59
2022-10-20T02:43:49.771Z,100558.81
2022-10-20T02:48:51.469Z,100560.38
2022-10-20T02:53:54.860Z,100559.41
2022-10-20T02:58:57.521Z,100559.19
2022-10-20T03:03:59.995Z,100553.25
2022-10-20T03:09:01.764Z,100548.72
2022-10-20T03:14:03.781Z,100533.22
2022-10-20T03:19:07.269Z,100530.84
2022-10-20T03:24:10.895Z,100544.41
2022-10-20T03:29:12.601Z,100539.47
2022-10-20T03:34:14.446Z,100538.00
2022-10-20T03:39:16.161Z,100533.00
2022-10-20T03:44:17.835Z,100531.25
2022-10-20T03:49:19.562Z,100538.06
2022-10-20T03:54:21.224Z,100532.53
2022-10-20T03:59:24.499Z,100531.44
2022-10-20T04:04:28.442Z,100525.41
2022-10-20T04:09:30.114Z,100525.59
2022-10-20T04:14:31.772Z,100513.25
2022-10-20T04:19:33.458Z,100507.34
2022-10-20T04:24:35.351Z,100514.59
2022-10-20T04:29:37.168Z,100512.06
2022-10-20T04:34:39.054Z,100498.19
2022-10-20T04:39:40.939Z,100492.84
2022-10-20T04:44:42.685Z,100496.66
2022-10-20T04:49:44.451Z,100486.06
2022-10-20T04:54:46.131Z,100472.34
2022-10-20T04:59:47.888Z,100467.13
2022-10-20T05:04:49.554Z,100467.34
2022-10-20T05:09:51.216Z,100463.56
2022-10-20T05:14:52.880Z,100454.78
2022-10-20T05:19:54.533Z,100448.72
2022-10-20T05:24:58.406Z,100445.56
2022-10-20T05:30:06.406Z,100447.06
2022-10-20T05:35:08.496Z,100450.56
2022-10-20T05:40:10.612Z,100442.16
2022-10-20T05:45:12.484Z,100435.47
2022-10-20T05:50:14.177Z,100438.84
2022-10-20T05:55:15.996Z,100436.97
2022-10-20T06:00:23.781Z,100437.06
2022-10-20T06:05:25.451Z,100450.00
2022-10-20T06:10:27.147Z,100451.50
2022-10-20T06:15:28.842Z,100448.19
2022-10-20T06:20:30.526Z,100451.25
2022-10-20T06:25:32.213Z,100450.81
2022-10-20T06:30:33.901Z,100450.28
2022-10-20T06:35:35.563Z,100454.03
2022-10-20T06:40:37.409Z,100457.34
2022-10-20T06:45:39.067Z,100463.16
2022-10-20T06:50:40.746Z,100458.59
2022-10-20T06:55:42.423Z,100468.13
2022-10-20T07:00:44.092Z,100472.84
2022-10-20T07:05:48.444Z,100466.97
2022-10-20T07:11:11.748Z,100475.53
2022-10-20T07:16:17.252Z,100464.47
2022-10-20T07:21:30.771Z,100467.41
2022-10-20T07:26:39.259Z,100457.16
2022-10-20T07:31:44.618Z,100448.66
2022-10-20T07:36:46.291Z,100445.63
2022-10-20T07:41:48.402Z,100444.31
2022-10-20T07:46:50.369Z,100433.66
2022-10-20T07:51:52.078Z,100433.25
2022-10-20T07:56:53.752Z,100426.34
2022-10-20T08:01:57.518Z,100427.34
2022-10-20T08:07:01.265Z,100429.06
2022-10-20T08:12:04.296Z,100417.09
2022-10-20T08:17:06.046Z,100411.63
2022-10-20T08:22:07.736Z,100403.16
2022-10-20T08:27:09.427Z,100392.63
2022-10-20T08:32:13.157Z,100380.81
2022-10-20T08:37:14.884Z,100383.47
2022-10-20T08:42:17.805Z,100371.44
2022-10-20T08:47:32.517Z,100369.63
2022-10-20T08:52:35.971Z,100355.44
2022-10-20T08:57:38.071Z,100350.81
2022-10-20T09:02:40.397Z,100343.31
2022-10-20T09:07:42.070Z,100331.84
2022-10-20T09:12:46.828Z,100319.25
2022-10-20T09:17:55.524Z,100317.50
2022-10-20T09:22:57.411Z,100308.19
2022-10-20T09:27:59.116Z,100309.97
2022-10-20T09:33:01.350Z,100297.09
2022-10-20T09:38:22.521Z,100292.47
2022-10-20T09:43:26.723Z,100280.13
2022-10-20T09:48:32.785Z,100274.97
2022-10-20T09:53:41.112Z,100275.22
2022-10-20T09:58:47.614Z,100272.69
2022-10-20T10:03:56.464Z,100270.53
2022-10-20T10:09:00.797Z,100251.03
2022-10-20T10:14:03.675Z,100251.41
2022-10-20T10:19:06.036Z,100244.69
2022-10-20T10:24:30.047Z,100236.31
2022-10-20T10:29:36.387Z,100223.34
2022-10-20T10:34:45.068Z,100222.63
2022-10-20T10:39:46.963Z,100217.59
2022-10-20T10:45:02.990Z,100214.31
2022-10-20T10:50:23.203Z,100193.66
2022-10-20T10:55:59.921Z,100190.28
2022-10-20T11:01:37.275Z,100166.28
2022-10-20T11:06:42.614Z,100162.31
2022-10-20T11:12:12.085Z,100169.41
2022-10-20T11:17:56.807Z,100160.66
2022-10-20T11:23:23.104Z,100156.34
2022-10-20T11:28:44.312Z,100154.66
2022-10-20T11:33:51.463Z,100136.63
2022-10-20T11:38:56.256Z,100136.28
2022-10-20T11:44:14.571Z,100134.91
2022-10-20T11:49:16.413Z,100122.66
2022-10-20T11:54:54.978Z,100120.59
2022-10-20T12:00:27.413Z,100114.53
2022-10-20T12:05:39.408Z,100118.88
2022-10-20T12:10:58.654Z,100115.38
2022-10-20T12:16:00.410Z,100110.34
2022-10-20T12:21:03.407Z,100103.78
2022-10-20T12:26:32.953Z,100083.78
2022-10-20T12:32:11.916Z,100064.75
2022-10-20T12:37:26.165Z,100069.16
2022-10-20T12:42:33.588Z,100055.59
2022-10-20T12:47:37.787Z,100054.19
2022-10-20T12:52:40.716Z,100053.31
2022-10-20T12:57:43.014Z,100059.09
2022-10-20T13:02:47.234Z,100055.31
2022-10-20T13:07:48.929Z,100059.03
2022-10-20T13:12:50.693Z,100059.09
2022-10-20T13:18:02.453Z,100041.75
2022-10-20T13:23:04.818Z,100040.09
2022-10-20T13:28:23.446Z,100039.13
2022-10-20T13:33:58.763Z,100026.94
2022-10-20T13:39:28.069Z,100022.03
2022-10-20T13:44:44.832Z,100009.28
2022-10-20T13:50:06.138Z,100002.50
2022-10-20T13:55:16.150Z,100012.03
2022-10-20T14:00:22.439Z,100019.69
2022-10-20T14:05:25.777Z,100015.41
2022-10-20T14:10:53.588Z,100003.75
2022-10-20T14:15:58.153Z,100009.41
2022-10-20T14:21:05.625Z,99987.63
2022-10-20T14:26:15.722Z,99990.09
2022-10-20T14:31:22.024Z,99994.09
2022-10-20T14:41:35.783Z,99982.44
2022-10-20T14:46:45.033Z,99984.22
2022-10-20T14:51:59.225Z,99982.41
2022-10-20T14:57:22.336Z,99964.53
2022-10-20T15:02:27.353Z,99966.13
2022-10-20T15:07:34.040Z,99977.53
2022-10-20T15:12:36.114Z,99976.03
2022-10-20T15:17:47.564Z,99969.66
2022-10-20T15:22:52.239Z,99977.09
2022-10-20T15:27:57.428Z,99962.84
2022-10-20T15:32:59.393Z,99948.16
2022-10-20T15:38:01.058Z,99935.63
2022-10-20T15:43:03.173Z,99931.47
2022-10-20T15:48:05.088Z,99933.41
2022-10-20T15:53:06.840Z,99929.25
2022-10-20T15:58:08.788Z,99925.06
2022-10-20T16:03:17.199Z,99902.75
2022-10-20T16:08:18.870Z,99906.06
2022-10-20T16:13:21.208Z,99924.44
2022-10-20T16:18:22.878Z,99924.97
2022-10-20T16:23:24.778Z,99918.41
2022-10-20T16:28:26.447Z,99923.28
2022-10-20T16:33:28.545Z,99930.03
2022-10-20T16:38:30.644Z,99928.66
2022-10-20T16:43:36.418Z,99928.81
2022-10-20T16:48:41.365Z,99936.22
2022-10-20T16:53:44.525Z,99936.38
2022-10-20T16:58:46.185Z,99920.00
2022-10-20T17:03:52.967Z,99911.56
2022-10-20T17:08:55.329Z,99912.66
2022-10-20T17:13:57.638Z,99906.19
2022-10-20T17:19:01.369Z,99906.66
2022-10-20T17:24:03.129Z,99916.78
2022-10-20T17:29:05.056Z,99908.28
2022-10-20T17:34:06.776Z,99908.78
2022-10-20T17:39:08.837Z,99911.75
2022-10-20T17:44:10.512Z,99924.09
2022-10-20T17:49:12.201Z,99921.50
2022-10-20T17:54:14.024Z,99911.09
2022-10-20T17:59:15.696Z,99889.53
2022-10-20T18:04:18.685Z,99883.91
2022-10-20T18:09:20.450Z,99881.22
2022-10-20T18:14:22.135Z,99877.03
2022-10-20T18:19:23.807Z,99853.47
2022-10-20T18:24:25.508Z,99839.31
2022-10-20T18:29:27.245Z,99839.00
2022-10-20T18:34:28.908Z,99833.66
2022-10-20T18:39:34.146Z,99831.50
2022-10-20T18:44:35.870Z,99821.16
2022-10-20T18:49:37.555Z,99820.81
2022-10-20T18:54:39.620Z,99818.53
2022-10-20T18:59:41.291Z,99821.78
2022-10-20T19:04:42.979Z,99818.94
2022-10-20T19:09:44.650Z,99818.75
2022-10-20T19:14:46.369Z,99813.19
2022-10-20T19:19:48.038Z,99807.22
2022-10-20T19:24:49.713Z,99806.75
2022-10-20T19:29:51.422Z,99791.28
2022-10-20T19:34:53.113Z,99780.28
2022-10-20T19:39:54.827Z,99788.56
2022-10-20T19:44:56.501Z,99781.25
2022-10-20T19:49:58.188Z,99774.56
2022-10-20T19:55:01.279Z,99786.06
2022-10-20T20:00:03.770Z,99802.25
2022-10-20T20:05:06.527Z,99795.66
2022-10-20T20:10:10.176Z,99815.66
2022-10-20T20:15:11.879Z,99806.22
2022-10-20T20:20:13.589Z,99793.59
2022-10-20T20:25:15.624Z,99788.88
2022-10-20T20:30:17.290Z,99786.97
2022-10-20T20:35:18.972Z,99789.00
2022-10-20T20:40:21.508Z,99766.44
2022-10-20T20:45:23.176Z,99763.66
2022-10-20T20:50:24.854Z,99756.38
2022-10-20T20:55:26.525Z,99767.13
2022-10-20T21:00:28.232Z,99773.91
2022-10-20T21:05:29.924Z,99756.19
2022-10-20T21:10:31.675Z,99766.75
2022-10-20T21:15:33.326Z,99797.25
2022-10-20T21:20:34.990Z,99812.47
2022-10-20T21:25:36.670Z,99790.03
2022-10-20T21:30:40.186Z,99826.91
2022-10-20T21:35:41.901Z,99859.88
2022-10-20T21:40:43.553Z,99863.50
2022-10-20T21:45:45.208Z,99845.34
2022-10-20T21:50:46.864Z,99849.28
2022-10-20T21:55:48.518Z,99852.56
2022-10-20T22:00:53.688Z,99848.66
2022-10-20T22:05:55.360Z,99855.22
2022-10-20T22:10:57.044Z,99852.34
2022-10-20T22:15:59.213Z,99849.03
2022-10-20T22:21:13.783Z,99828.25
2022-10-20T22:26:15.620Z,99851.50
2022-10-20T22:31:18.254Z,99841.22
2022-10-20T22:36:20.510Z,99837.69
2022-10-20T22:41:22.677Z,99854.38
2022-10-20T22:46:25.005Z,99845.81
2022-10-20T22:51:26.688Z,99824.09
2022-10-20T22:56:28.458Z,99808.03
2022-10-20T23:01:30.198Z,99796.94
2022-10-20T23:06:31.929Z,99786.41
2022-10-20T23:11:34.317Z,99781.97
2022-10-20T23:16:35.984Z,99781.44
2022-10-20T23:21:37.644Z,99777.66
2022-10-20T23:26:39.382Z,99776.47
2022-10-20T23:31:41.111Z,99775.00
2022-10-20T23:36:42.790Z,99780.44
2022-10-20T23:41:44.639Z,99799.19
2022-10-20T23:46:46.334Z,99787.59
2022-10-20T23:51:48.075Z,99776.06
2022-10-20T23:56:49.739Z,99785.06
